sensor_id;sensor_type;location;lat;lon;timestamp;P1;durP1;ratioP1;P2;durP2;ratioP2
64395;SDS011;50717;53.360;6.290;2022-10-16T00:01:22;8.13;;;2.13;;
64395;SDS011;50717;53.360;6.290;2022-10-16T00:03:50;12.30;;;2.20;;
64395;SDS011;50717;53.360;6.290;2022-10-16T00:06:16;13.68;;;2.60;;
64395;SDS011;50717;53.360;6.290;2022-10-16T00:08:43;7.55;;;2.45;;
64395;SDS011;50717;53.360;6.290;2022-10-16T00:13:40;8.07;;;1.90;;
64395;SDS011;50717;53.360;6.290;2022-10-16T00:16:06;12.30;;;2.65;;
64395;SDS011;50717;53.360;6.290;2022-10-16T00:18:33;14.23;;;2.90;;
64395;SDS011;50717;53.360;6.290;2022-10-16T00:21:07;8.75;;;2.08;;
64395;SDS011;50717;53.360;6.290;2022-10-16T00:23:38;7.10;;;2.13;;
64395;SDS011;50717;53.360;6.290;2022-10-16T00:26:06;17.00;;;2.80;;
64395;SDS011;50717;53.360;6.290;2022-10-16T00:28:34;12.68;;;2.42;;
64395;SDS011;50717;53.360;6.290;2022-10-16T00:31:10;11.50;;;2.10;;
64395;SDS011;50717;53.360;6.290;2022-10-16T00:33:36;8.43;;;2.17;;
64395;SDS011;50717;53.360;6.290;2022-10-16T00:36:04;10.75;;;2.40;;
64395;SDS011;50717;53.360;6.290;2022-10-16T00:38:31;10.45;;;2.53;;
64395;SDS011;50717;53.360;6.290;2022-10-16T00:40:57;8.38;;;2.50;;
64395;SDS011;50717;53.360;6.290;2022-10-16T00:43:34;7.22;;;2.15;;
64395;SDS011;50717;53.360;6.290;2022-10-16T00:46:00;11.25;;;2.40;;
64395;SDS011;50717;53.360;6.290;2022-10-16T00:48:28;8.82;;;2.20;;
64395;SDS011;50717;53.360;6.290;2022-10-16T00:53:20;9.55;;;2.30;;
64395;SDS011;50717;53.360;6.290;2022-10-16T00:55:46;8.57;;;2.08;;
64395;SDS011;50717;53.360;6.290;2022-10-16T00:58:12;6.88;;;2.30;;
64395;SDS011;50717;53.360;6.290;2022-10-16T01:00:38;9.90;;;2.60;;
64395;SDS011;50717;53.360;6.290;2022-10-16T01:03:21;11.15;;;2.67;;
64395;SDS011;50717;53.360;6.290;2022-10-16T01:05:59;12.77;;;3.25;;
64395;SDS011;50717;53.360;6.290;2022-10-16T01:11:56;6.63;;;2.15;;
64395;SDS011;50717;53.360;6.290;2022-10-16T01:14:53;10.18;;;2.35;;
64395;SDS011;50717;53.360;6.290;2022-10-16T01:25:36;10.48;;;2.58;;
64395;SDS011;50717;53.360;6.290;2022-10-16T01:28:22;10.77;;;2.50;;
64395;SDS011;50717;53.360;6.290;2022-10-16T01:30:53;7.25;;;2.10;;
64395;SDS011;50717;53.360;6.290;2022-10-16T01:33:30;6.72;;;2.00;;
64395;SDS011;50717;53.360;6.290;2022-10-16T01:36:25;6.97;;;2.28;;
64395;SDS011;50717;53.360;6.290;2022-10-16T01:38:56;12.98;;;2.67;;
64395;SDS011;50717;53.360;6.290;2022-10-16T01:41:31;7.30;;;2.58;;
64395;SDS011;50717;53.360;6.290;2022-10-16T01:46:50;8.10;;;2.10;;
64395;SDS011;50717;53.360;6.290;2022-10-16T01:49:19;7.47;;;2.17;;
64395;SDS011;50717;53.360;6.290;2022-10-16T01:51:49;6.72;;;2.20;;
64395;SDS011;50717;53.360;6.290;2022-10-16T01:54:17;6.95;;;2.05;;
64395;SDS011;50717;53.360;6.290;2022-10-16T01:56:45;6.22;;;2.25;;
64395;SDS011;50717;53.360;6.290;2022-10-16T01:59:14;9.68;;;1.92;;
64395;SDS011;50717;53.360;6.290;2022-10-16T02:01:44;10.27;;;2.10;;
64395;SDS011;50717;53.360;6.290;2022-10-16T02:06:59;10.48;;;2.53;;
64395;SDS011;50717;53.360;6.290;2022-10-16T02:09:25;8.15;;;2.03;;
64395;SDS011;50717;53.360;6.290;2022-10-16T02:11:52;4.93;;;2.10;;
64395;SDS011;50717;53.360;6.290;2022-10-16T02:14:19;15.13;;;2.38;;
64395;SDS011;50717;53.360;6.290;2022-10-16T02:16:47;11.05;;;2.72;;
64395;SDS011;50717;53.360;6.290;2022-10-16T02:19:13;6.38;;;2.22;;
64395;SDS011;50717;53.360;6.290;2022-10-16T02:21:43;6.28;;;2.33;;
64395;SDS011;50717;53.360;6.290;2022-10-16T02:24:32;6.60;;;2.40;;
64395;SDS011;50717;53.360;6.290;2022-10-16T02:30:34;9.32;;;3.15;;
64395;SDS011;50717;53.360;6.290;2022-10-16T02:33:05;11.07;;;2.78;;
64395;SDS011;50717;53.360;6.290;2022-10-16T02:35:34;9.82;;;3.47;;
64395;SDS011;50717;53.360;6.290;2022-10-16T02:38:01;6.30;;;2.92;;
64395;SDS011;50717;53.360;6.290;2022-10-16T02:42:54;8.07;;;2.40;;
64395;SDS011;50717;53.360;6.290;2022-10-16T02:45:20;6.15;;;2.97;;
64395;SDS011;50717;53.360;6.290;2022-10-16T02:47:46;8.60;;;3.00;;
64395;SDS011;50717;53.360;6.290;2022-10-16T02:50:12;7.40;;;3.33;;
64395;SDS011;50717;53.360;6.290;2022-10-16T02:52:38;9.57;;;3.20;;
64395;SDS011;50717;53.360;6.290;2022-10-16T02:55:04;4.30;;;3.00;;
64395;SDS011;50717;53.360;6.290;2022-10-16T02:57:30;6.28;;;3.58;;
64395;SDS011;50717;53.360;6.290;2022-10-16T02:59:56;5.85;;;3.10;;
64395;SDS011;50717;53.360;6.290;2022-10-16T03:02:23;9.48;;;3.40;;
64395;SDS011;50717;53.360;6.290;2022-10-16T03:04:49;10.93;;;3.92;;
64395;SDS011;50717;53.360;6.290;2022-10-16T03:07:14;9.85;;;4.13;;
64395;SDS011;50717;53.360;6.290;2022-10-16T03:09:40;9.43;;;3.40;;
64395;SDS011;50717;53.360;6.290;2022-10-16T03:12:06;11.73;;;3.28;;
64395;SDS011;50717;53.360;6.290;2022-10-16T03:14:32;10.68;;;3.15;;
64395;SDS011;50717;53.360;6.290;2022-10-16T03:16:58;13.18;;;3.60;;
64395;SDS011;50717;53.360;6.290;2022-10-16T03:19:23;8.02;;;3.30;;
64395;SDS011;50717;53.360;6.290;2022-10-16T03:21:49;10.05;;;3.30;;
64395;SDS011;50717;53.360;6.290;2022-10-16T03:24:15;7.50;;;3.05;;
64395;SDS011;50717;53.360;6.290;2022-10-16T03:26:41;6.00;;;2.90;;
64395;SDS011;50717;53.360;6.290;2022-10-16T03:29:06;7.10;;;3.35;;
64395;SDS011;50717;53.360;6.290;2022-10-16T03:31:32;8.27;;;3.05;;
64395;SDS011;50717;53.360;6.290;2022-10-16T03:33:58;4.95;;;3.15;;
64395;SDS011;50717;53.360;6.290;2022-10-16T03:36:23;7.97;;;2.88;;
64395;SDS011;50717;53.360;6.290;2022-10-16T03:38:49;9.02;;;2.90;;
64395;SDS011;50717;53.360;6.290;2022-10-16T03:41:15;5.88;;;3.15;;
64395;SDS011;50717;53.360;6.290;2022-10-16T03:43:41;6.57;;;2.55;;
64395;SDS011;50717;53.360;6.290;2022-10-16T03:46:06;8.32;;;2.78;;
64395;SDS011;50717;53.360;6.290;2022-10-16T03:48:32;11.63;;;3.67;;
64395;SDS011;50717;53.360;6.290;2022-10-16T03:50:58;6.70;;;2.95;;
64395;SDS011;50717;53.360;6.290;2022-10-16T03:53:24;5.53;;;3.00;;
64395;SDS011;50717;53.360;6.290;2022-10-16T03:55:50;8.70;;;3.10;;
64395;SDS011;50717;53.360;6.290;2022-10-16T03:58:15;9.88;;;2.50;;
64395;SDS011;50717;53.360;6.290;2022-10-16T04:03:08;7.20;;;2.90;;
64395;SDS011;50717;53.360;6.290;2022-10-16T04:07:59;7.22;;;2.95;;
64395;SDS011;50717;53.360;6.290;2022-10-16T04:10:25;8.57;;;2.85;;
64395;SDS011;50717;53.360;6.290;2022-10-16T04:12:51;7.25;;;2.75;;
64395;SDS011;50717;53.360;6.290;2022-10-16T04:15:16;8.98;;;2.70;;
64395;SDS011;50717;53.360;6.290;2022-10-16T04:17:42;7.88;;;2.80;;
64395;SDS011;50717;53.360;6.290;2022-10-16T04:20:08;5.45;;;2.60;;
64395;SDS011;50717;53.360;6.290;2022-10-16T04:22:34;7.38;;;2.90;;
64395;SDS011;50717;53.360;6.290;2022-10-16T04:24:59;4.80;;;2.72;;
64395;SDS011;50717;53.360;6.290;2022-10-16T04:27:25;10.25;;;3.20;;
64395;SDS011;50717;53.360;6.290;2022-10-16T04:29:51;10.10;;;3.08;;
64395;SDS011;50717;53.360;6.290;2022-10-16T04:32:16;7.68;;;2.80;;
64395;SDS011;50717;53.360;6.290;2022-10-16T04:34:42;6.53;;;2.83;;
64395;SDS011;50717;53.360;6.290;2022-10-16T04:37:08;8.10;;;2.83;;
64395;SDS011;50717;53.360;6.290;2022-10-16T04:39:33;9.88;;;2.55;;
64395;SDS011;50717;53.360;6.290;2022-10-16T04:41:59;10.20;;;3.08;;
64395;SDS011;50717;53.360;6.290;2022-10-16T04:44:25;5.93;;;2.60;;
64395;SDS011;50717;53.360;6.290;2022-10-16T04:46:51;6.30;;;2.05;;
64395;SDS011;50717;53.360;6.290;2022-10-16T04:49:16;7.07;;;2.78;;
64395;SDS011;50717;53.360;6.290;2022-10-16T04:51:42;9.10;;;2.45;;
64395;SDS011;50717;53.360;6.290;2022-10-16T04:54:08;6.47;;;2.50;;
64395;SDS011;50717;53.360;6.290;2022-10-16T04:56:34;7.10;;;2.75;;
64395;SDS011;50717;53.360;6.290;2022-10-16T04:59:07;5.35;;;2.30;;
64395;SDS011;50717;53.360;6.290;2022-10-16T05:01:33;8.07;;;2.95;;
64395;SDS011;50717;53.360;6.290;2022-10-16T05:03:59;8.93;;;2.70;;
64395;SDS011;50717;53.360;6.290;2022-10-16T05:06:25;5.65;;;2.13;;
64395;SDS011;50717;53.360;6.290;2022-10-16T05:08:50;10.98;;;2.80;;
64395;SDS011;50717;53.360;6.290;2022-10-16T05:11:16;6.13;;;2.35;;
64395;SDS011;50717;53.360;6.290;2022-10-16T05:13:42;5.30;;;1.83;;
64395;SDS011;50717;53.360;6.290;2022-10-16T05:16:07;5.55;;;2.13;;
64395;SDS011;50717;53.360;6.290;2022-10-16T05:18:33;5.95;;;2.47;;
64395;SDS011;50717;53.360;6.290;2022-10-16T05:20:59;4.55;;;2.33;;
64395;SDS011;50717;53.360;6.290;2022-10-16T05:23:24;9.73;;;2.28;;
64395;SDS011;50717;53.360;6.290;2022-10-16T05:25:56;7.07;;;2.30;;
64395;SDS011;50717;53.360;6.290;2022-10-16T05:28:24;7.05;;;3.08;;
64395;SDS011;50717;53.360;6.290;2022-10-16T05:30:50;5.95;;;2.60;;
64395;SDS011;50717;53.360;6.290;2022-10-16T05:33:16;9.43;;;2.55;;
64395;SDS011;50717;53.360;6.290;2022-10-16T05:35:44;9.02;;;2.00;;
64395;SDS011;50717;53.360;6.290;2022-10-16T05:38:10;8.23;;;2.35;;
64395;SDS011;50717;53.360;6.290;2022-10-16T05:40:35;5.60;;;2.30;;
64395;SDS011;50717;53.360;6.290;2022-10-16T05:43:01;6.00;;;2.55;;
64395;SDS011;50717;53.360;6.290;2022-10-16T05:45:27;5.25;;;2.53;;
64395;SDS011;50717;53.360;6.290;2022-10-16T05:47:52;3.50;;;2.30;;
64395;SDS011;50717;53.360;6.290;2022-10-16T05:50:18;10.63;;;3.17;;
64395;SDS011;50717;53.360;6.290;2022-10-16T05:52:44;4.70;;;2.70;;
64395;SDS011;50717;53.360;6.290;2022-10-16T05:55:09;9.70;;;2.72;;
64395;SDS011;50717;53.360;6.290;2022-10-16T05:57:35;11.25;;;2.88;;
64395;SDS011;50717;53.360;6.290;2022-10-16T06:00:00;7.35;;;2.90;;
64395;SDS011;50717;53.360;6.290;2022-10-16T06:02:26;6.18;;;2.65;;
64395;SDS011;50717;53.360;6.290;2022-10-16T06:04:52;5.80;;;2.60;;
64395;SDS011;50717;53.360;6.290;2022-10-16T06:07:21;7.25;;;3.05;;
64395;SDS011;50717;53.360;6.290;2022-10-16T06:09:48;12.95;;;3.10;;
64395;SDS011;50717;53.360;6.290;2022-10-16T06:12:17;8.65;;;2.80;;
64395;SDS011;50717;53.360;6.290;2022-10-16T06:14:44;7.30;;;3.15;;
64395;SDS011;50717;53.360;6.290;2022-10-16T06:17:11;9.32;;;3.10;;
64395;SDS011;50717;53.360;6.290;2022-10-16T06:19:38;9.65;;;3.92;;
64395;SDS011;50717;53.360;6.290;2022-10-16T06:22:04;5.72;;;3.72;;
64395;SDS011;50717;53.360;6.290;2022-10-16T06:24:29;6.47;;;3.78;;
64395;SDS011;50717;53.360;6.290;2022-10-16T06:26:55;13.60;;;4.90;;
64395;SDS011;50717;53.360;6.290;2022-10-16T06:29:21;9.18;;;4.13;;
64395;SDS011;50717;53.360;6.290;2022-10-16T06:31:46;9.65;;;3.65;;
64395;SDS011;50717;53.360;6.290;2022-10-16T06:34:12;10.57;;;3.78;;
64395;SDS011;50717;53.360;6.290;2022-10-16T06:36:38;9.73;;;3.90;;
64395;SDS011;50717;53.360;6.290;2022-10-16T06:39:04;13.32;;;4.65;;
64395;SDS011;50717;53.360;6.290;2022-10-16T06:41:32;8.20;;;3.08;;
64395;SDS011;50717;53.360;6.290;2022-10-16T06:43:58;7.22;;;3.45;;
64395;SDS011;50717;53.360;6.290;2022-10-16T06:46:24;11.27;;;4.03;;
64395;SDS011;50717;53.360;6.290;2022-10-16T06:48:50;7.45;;;3.20;;
64395;SDS011;50717;53.360;6.290;2022-10-16T06:51:17;12.98;;;3.78;;
64395;SDS011;50717;53.360;6.290;2022-10-16T06:53:45;9.95;;;4.03;;
64395;SDS011;50717;53.360;6.290;2022-10-16T06:56:17;11.57;;;3.63;;
64395;SDS011;50717;53.360;6.290;2022-10-16T06:58:45;7.75;;;4.25;;
64395;SDS011;50717;53.360;6.290;2022-10-16T07:01:11;8.65;;;4.05;;
64395;SDS011;50717;53.360;6.290;2022-10-16T07:03:39;9.35;;;3.70;;
64395;SDS011;50717;53.360;6.290;2022-10-16T07:06:07;12.20;;;4.28;;
64395;SDS011;50717;53.360;6.290;2022-10-16T07:08:34;9.98;;;3.72;;
64395;SDS011;50717;53.360;6.290;2022-10-16T07:11:09;9.52;;;3.60;;
64395;SDS011;50717;53.360;6.290;2022-10-16T07:13:37;9.88;;;4.85;;
64395;SDS011;50717;53.360;6.290;2022-10-16T07:16:04;7.25;;;3.60;;
64395;SDS011;50717;53.360;6.290;2022-10-16T07:18:33;11.85;;;4.00;;
64395;SDS011;50717;53.360;6.290;2022-10-16T07:21:13;10.27;;;4.22;;
64395;SDS011;50717;53.360;6.290;2022-10-16T07:23:43;8.10;;;3.20;;
64395;SDS011;50717;53.360;6.290;2022-10-16T07:26:09;9.88;;;3.67;;
64395;SDS011;50717;53.360;6.290;2022-10-16T07:28:35;10.18;;;3.30;;
64395;SDS011;50717;53.360;6.290;2022-10-16T07:31:02;7.53;;;3.30;;
64395;SDS011;50717;53.360;6.290;2022-10-16T07:33:30;7.60;;;2.67;;
64395;SDS011;50717;53.360;6.290;2022-10-16T07:35:56;8.90;;;2.90;;
64395;SDS011;50717;53.360;6.290;2022-10-16T07:38:22;8.10;;;3.22;;
64395;SDS011;50717;53.360;6.290;2022-10-16T07:40:48;11.85;;;3.42;;
64395;SDS011;50717;53.360;6.290;2022-10-16T07:43:21;8.77;;;2.92;;
64395;SDS011;50717;53.360;6.290;2022-10-16T07:45:47;11.60;;;3.05;;
64395;SDS011;50717;53.360;6.290;2022-10-16T07:48:14;12.65;;;3.30;;
64395;SDS011;50717;53.360;6.290;2022-10-16T07:50:41;7.72;;;2.45;;
64395;SDS011;50717;53.360;6.290;2022-10-16T07:53:07;9.40;;;2.55;;
64395;SDS011;50717;53.360;6.290;2022-10-16T07:55:32;9.90;;;2.90;;
64395;SDS011;50717;53.360;6.290;2022-10-16T07:57:58;9.52;;;3.03;;
64395;SDS011;50717;53.360;6.290;2022-10-16T08:00:24;9.60;;;3.10;;
64395;SDS011;50717;53.360;6.290;2022-10-16T08:02:49;9.50;;;3.35;;
64395;SDS011;50717;53.360;6.290;2022-10-16T08:05:15;10.75;;;3.85;;
64395;SDS011;50717;53.360;6.290;2022-10-16T08:07:41;7.25;;;3.63;;
64395;SDS011;50717;53.360;6.290;2022-10-16T08:10:09;10.73;;;3.75;;
64395;SDS011;50717;53.360;6.290;2022-10-16T08:12:40;11.50;;;3.78;;
64395;SDS011;50717;53.360;6.290;2022-10-16T08:15:06;9.20;;;4.03;;
64395;SDS011;50717;53.360;6.290;2022-10-16T08:17:32;10.52;;;3.40;;
64395;SDS011;50717;53.360;6.290;2022-10-16T08:19:58;8.95;;;3.47;;
64395;SDS011;50717;53.360;6.290;2022-10-16T08:22:24;8.32;;;2.90;;
64395;SDS011;50717;53.360;6.290;2022-10-16T08:24:49;9.35;;;3.22;;
64395;SDS011;50717;53.360;6.290;2022-10-16T08:27:15;10.93;;;3.25;;
64395;SDS011;50717;53.360;6.290;2022-10-16T08:29:41;9.32;;;3.38;;
64395;SDS011;50717;53.360;6.290;2022-10-16T08:32:06;9.63;;;3.50;;
64395;SDS011;50717;53.360;6.290;2022-10-16T08:34:32;10.63;;;2.72;;
64395;SDS011;50717;53.360;6.290;2022-10-16T08:36:58;8.13;;;2.67;;
64395;SDS011;50717;53.360;6.290;2022-10-16T08:39:23;6.97;;;2.50;;
64395;SDS011;50717;53.360;6.290;2022-10-16T08:44:27;7.40;;;2.50;;
64395;SDS011;50717;53.360;6.290;2022-10-16T08:47:13;7.22;;;2.63;;
64395;SDS011;50717;53.360;6.290;2022-10-16T08:49:55;6.68;;;2.53;;
64395;SDS011;50717;53.360;6.290;2022-10-16T08:52:30;7.90;;;2.33;;
64395;SDS011;50717;53.360;6.290;2022-10-16T08:55:00;8.20;;;2.30;;
64395;SDS011;50717;53.360;6.290;2022-10-16T08:57:27;7.70;;;2.22;;
64395;SDS011;50717;53.360;6.290;2022-10-16T08:59:53;5.75;;;2.47;;
64395;SDS011;50717;53.360;6.290;2022-10-16T09:02:32;9.65;;;2.38;;
64395;SDS011;50717;53.360;6.290;2022-10-16T09:07:30;5.90;;;2.10;;
64395;SDS011;50717;53.360;6.290;2022-10-16T09:10:19;22.77;;;3.47;;
64395;SDS011;50717;53.360;6.290;2022-10-16T09:16:10;13.93;;;2.80;;
64395;SDS011;50717;53.360;6.290;2022-10-16T09:19:00;9.68;;;2.90;;
64395;SDS011;50717;53.360;6.290;2022-10-16T09:21:41;9.18;;;2.85;;
64395;SDS011;50717;53.360;6.290;2022-10-16T09:26:39;10.45;;;3.03;;
64395;SDS011;50717;53.360;6.290;2022-10-16T09:29:05;13.35;;;3.10;;
64395;SDS011;50717;53.360;6.290;2022-10-16T09:31:31;18.20;;;3.78;;
64395;SDS011;50717;53.360;6.290;2022-10-16T09:34:02;15.60;;;3.20;;
64395;SDS011;50717;53.360;6.290;2022-10-16T09:36:32;12.98;;;2.92;;
64395;SDS011;50717;53.360;6.290;2022-10-16T09:39:07;15.73;;;3.33;;
64395;SDS011;50717;53.360;6.290;2022-10-16T09:41:35;11.40;;;2.60;;
64395;SDS011;50717;53.360;6.290;2022-10-16T09:44:03;12.00;;;2.80;;
64395;SDS011;50717;53.360;6.290;2022-10-16T09:46:40;15.25;;;2.92;;
64395;SDS011;50717;53.360;6.290;2022-10-16T09:49:22;15.73;;;2.85;;
64395;SDS011;50717;53.360;6.290;2022-10-16T09:51:50;16.02;;;3.17;;
64395;SDS011;50717;53.360;6.290;2022-10-16T09:54:19;15.65;;;2.33;;
64395;SDS011;50717;53.360;6.290;2022-10-16T09:56:46;15.40;;;3.20;;
64395;SDS011;50717;53.360;6.290;2022-10-16T09:59:17;12.98;;;3.70;;
64395;SDS011;50717;53.360;6.290;2022-10-16T10:04:16;13.50;;;2.60;;
64395;SDS011;50717;53.360;6.290;2022-10-16T10:06:46;11.82;;;2.58;;
64395;SDS011;50717;53.360;6.290;2022-10-16T10:09:15;13.45;;;3.20;;
64395;SDS011;50717;53.360;6.290;2022-10-16T10:14:37;12.40;;;2.50;;
64395;SDS011;50717;53.360;6.290;2022-10-16T10:31:03;13.75;;;3.22;;
64395;SDS011;50717;53.360;6.290;2022-10-16T10:36:34;9.95;;;2.53;;
64395;SDS011;50717;53.360;6.290;2022-10-16T10:39:11;9.07;;;2.33;;
64395;SDS011;50717;53.360;6.290;2022-10-16T10:44:48;11.10;;;2.72;;
64395;SDS011;50717;53.360;6.290;2022-10-16T11:05:50;21.90;;;2.78;;
64395;SDS011;50717;53.360;6.290;2022-10-16T11:11:25;21.88;;;3.67;;
64395;SDS011;50717;53.360;6.290;2022-10-16T11:19:42;21.38;;;3.75;;
64395;SDS011;50717;53.360;6.290;2022-10-16T11:24:59;15.73;;;2.85;;
64395;SDS011;50717;53.360;6.290;2022-10-16T11:27:44;22.38;;;3.38;;
64395;SDS011;50717;53.360;6.290;2022-10-16T11:30:20;20.80;;;2.70;;
64395;SDS011;50717;53.360;6.290;2022-10-16T11:35:37;18.27;;;2.63;;
64395;SDS011;50717;53.360;6.290;2022-10-16T11:38:55;15.70;;;2.53;;
64395;SDS011;50717;53.360;6.290;2022-10-16T11:41:33;17.08;;;2.50;;
64395;SDS011;50717;53.360;6.290;2022-10-16T11:46:35;10.95;;;1.92;;
64395;SDS011;50717;53.360;6.290;2022-10-16T11:49:10;10.45;;;2.13;;
64395;SDS011;50717;53.360;6.290;2022-10-16T11:51:54;11.20;;;1.80;;
64395;SDS011;50717;53.360;6.290;2022-10-16T11:57:47;14.05;;;2.60;;
64395;SDS011;50717;53.360;6.290;2022-10-16T12:00:20;10.15;;;2.30;;
64395;SDS011;50717;53.360;6.290;2022-10-16T12:08:17;13.65;;;2.88;;
64395;SDS011;50717;53.360;6.290;2022-10-16T12:10:44;13.32;;;3.08;;
64395;SDS011;50717;53.360;6.290;2022-10-16T12:13:45;13.20;;;2.83;;
64395;SDS011;50717;53.360;6.290;2022-10-16T12:19:02;13.32;;;1.77;;
64395;SDS011;50717;53.360;6.290;2022-10-16T12:21:35;13.35;;;2.03;;
64395;SDS011;50717;53.360;6.290;2022-10-16T12:26:31;7.57;;;1.92;;
64395;SDS011;50717;53.360;6.290;2022-10-16T12:29:14;13.20;;;2.60;;
64395;SDS011;50717;53.360;6.290;2022-10-16T12:31:59;14.82;;;2.08;;
64395;SDS011;50717;53.360;6.290;2022-10-16T12:34:28;12.82;;;2.03;;
64395;SDS011;50717;53.360;6.290;2022-10-16T12:37:07;14.80;;;2.05;;
64395;SDS011;50717;53.360;6.290;2022-10-16T12:39:54;10.88;;;1.98;;
64395;SDS011;50717;53.360;6.290;2022-10-16T12:47:22;11.57;;;2.20;;
64395;SDS011;50717;53.360;6.290;2022-10-16T12:49:54;13.13;;;2.47;;
64395;SDS011;50717;53.360;6.290;2022-10-16T12:52:54;9.50;;;1.75;;
64395;SDS011;50717;53.360;6.290;2022-10-16T12:55:16;14.25;;;2.22;;
64395;SDS011;50717;53.360;6.290;2022-10-16T13:03:42;11.93;;;2.33;;
64395;SDS011;50717;53.360;6.290;2022-10-16T13:12:20;6.85;;;1.90;;
64395;SDS011;50717;53.360;6.290;2022-10-16T13:17:33;12.25;;;2.25;;
64395;SDS011;50717;53.360;6.290;2022-10-16T13:22:50;9.40;;;1.90;;
64395;SDS011;50717;53.360;6.290;2022-10-16T13:27:56;12.95;;;2.47;;
64395;SDS011;50717;53.360;6.290;2022-10-16T13:30:29;11.60;;;2.10;;
64395;SDS011;50717;53.360;6.290;2022-10-16T13:32:59;14.20;;;1.92;;
64395;SDS011;50717;53.360;6.290;2022-10-16T13:35:31;8.23;;;1.95;;
64395;SDS011;50717;53.360;6.290;2022-10-16T13:38:11;12.93;;;2.30;;
64395;SDS011;50717;53.360;6.290;2022-10-16T13:40:47;10.32;;;2.53;;
64395;SDS011;50717;53.360;6.290;2022-10-16T13:43:40;15.95;;;2.95;;
64395;SDS011;50717;53.360;6.290;2022-10-16T13:46:18;13.05;;;2.30;;
64395;SDS011;50717;53.360;6.290;2022-10-16T13:48:58;12.32;;;2.10;;
64395;SDS011;50717;53.360;6.290;2022-10-16T13:51:28;13.73;;;2.35;;
64395;SDS011;50717;53.360;6.290;2022-10-16T13:53:55;14.35;;;2.53;;
64395;SDS011;50717;53.360;6.290;2022-10-16T13:56:22;16.50;;;2.75;;
64395;SDS011;50717;53.360;6.290;2022-10-16T13:59:02;14.65;;;2.13;;
64395;SDS011;50717;53.360;6.290;2022-10-16T14:01:48;11.20;;;2.58;;
64395;SDS011;50717;53.360;6.290;2022-10-16T14:04:15;13.32;;;2.17;;
64395;SDS011;50717;53.360;6.290;2022-10-16T14:06:42;13.35;;;2.28;;
64395;SDS011;50717;53.360;6.290;2022-10-16T14:09:14;11.93;;;2.25;;
64395;SDS011;50717;53.360;6.290;2022-10-16T14:12:02;13.07;;;2.47;;
64395;SDS011;50717;53.360;6.290;2022-10-16T14:14:34;12.40;;;2.30;;
64395;SDS011;50717;53.360;6.290;2022-10-16T14:17:06;12.13;;;2.40;;
64395;SDS011;50717;53.360;6.290;2022-10-16T14:19:38;11.38;;;2.45;;
64395;SDS011;50717;53.360;6.290;2022-10-16T14:24:41;17.08;;;2.72;;
64395;SDS011;50717;53.360;6.290;2022-10-16T14:30:11;10.43;;;1.92;;
64395;SDS011;50717;53.360;6.290;2022-10-16T14:32:40;12.90;;;2.47;;
64395;SDS011;50717;53.360;6.290;2022-10-16T14:35:23;8.27;;;2.22;;
64395;SDS011;50717;53.360;6.290;2022-10-16T14:37:51;13.27;;;2.28;;
64395;SDS011;50717;53.360;6.290;2022-10-16T14:40:23;15.18;;;2.08;;
64395;SDS011;50717;53.360;6.290;2022-10-16T14:42:50;9.27;;;2.20;;
64395;SDS011;50717;53.360;6.290;2022-10-16T14:45:24;12.23;;;2.17;;
64395;SDS011;50717;53.360;6.290;2022-10-16T14:47:53;16.98;;;2.72;;
64395;SDS011;50717;53.360;6.290;2022-10-16T14:50:23;9.98;;;2.20;;
64395;SDS011;50717;53.360;6.290;2022-10-16T14:52:50;14.43;;;2.58;;
64395;SDS011;50717;53.360;6.290;2022-10-16T14:55:16;8.57;;;2.05;;
64395;SDS011;50717;53.360;6.290;2022-10-16T14:57:43;15.95;;;2.80;;
64395;SDS011;50717;53.360;6.290;2022-10-16T15:00:15;12.77;;;2.20;;
64395;SDS011;50717;53.360;6.290;2022-10-16T15:02:49;10.95;;;2.10;;
64395;SDS011;50717;53.360;6.290;2022-10-16T15:07:43;9.85;;;2.00;;
64395;SDS011;50717;53.360;6.290;2022-10-16T15:10:11;12.63;;;1.95;;
64395;SDS011;50717;53.360;6.290;2022-10-16T15:12:40;12.80;;;2.47;;
64395;SDS011;50717;53.360;6.290;2022-10-16T15:17:55;15.70;;;2.35;;
64395;SDS011;50717;53.360;6.290;2022-10-16T15:20:23;17.95;;;3.00;;
64395;SDS011;50717;53.360;6.290;2022-10-16T15:22:49;10.32;;;2.20;;
64395;SDS011;50717;53.360;6.290;2022-10-16T15:28:01;12.88;;;2.47;;
64395;SDS011;50717;53.360;6.290;2022-10-16T15:30:28;9.40;;;2.03;;
64395;SDS011;50717;53.360;6.290;2022-10-16T15:35:21;14.70;;;2.25;;
64395;SDS011;50717;53.360;6.290;2022-10-16T15:40:13;8.73;;;1.55;;
64395;SDS011;50717;53.360;6.290;2022-10-16T15:45:04;8.13;;;2.10;;
64395;SDS011;50717;53.360;6.290;2022-10-16T15:47:31;9.98;;;2.30;;
64395;SDS011;50717;53.360;6.290;2022-10-16T15:52:22;11.32;;;2.10;;
64395;SDS011;50717;53.360;6.290;2022-10-16T15:57:14;18.70;;;2.88;;
64395;SDS011;50717;53.360;6.290;2022-10-16T16:02:05;10.60;;;1.92;;
64395;SDS011;50717;53.360;6.290;2022-10-16T16:06:56;15.68;;;2.58;;
64395;SDS011;50717;53.360;6.290;2022-10-16T16:11:48;9.55;;;1.67;;
64395;SDS011;50717;53.360;6.290;2022-10-16T16:14:14;14.13;;;2.17;;
64395;SDS011;50717;53.360;6.290;2022-10-16T16:16:40;10.07;;;2.20;;
64395;SDS011;50717;53.360;6.290;2022-10-16T16:19:07;15.88;;;2.65;;
64395;SDS011;50717;53.360;6.290;2022-10-16T16:21:33;10.68;;;2.08;;
64395;SDS011;50717;53.360;6.290;2022-10-16T16:23:59;15.02;;;2.78;;
64395;SDS011;50717;53.360;6.290;2022-10-16T16:28:59;14.35;;;2.78;;
64395;SDS011;50717;53.360;6.290;2022-10-16T16:33:52;15.30;;;2.08;;
64395;SDS011;50717;53.360;6.290;2022-10-16T16:38:44;12.45;;;2.40;;
64395;SDS011;50717;53.360;6.290;2022-10-16T16:41:11;10.82;;;1.80;;
64395;SDS011;50717;53.360;6.290;2022-10-16T16:43:41;13.57;;;2.10;;
64395;SDS011;50717;53.360;6.290;2022-10-16T16:48:33;8.35;;;3.10;;
64395;SDS011;50717;53.360;6.290;2022-10-16T16:51:03;12.35;;;2.80;;
64395;SDS011;50717;53.360;6.290;2022-10-16T16:53:43;12.98;;;3.67;;
64395;SDS011;50717;53.360;6.290;2022-10-16T16:56:10;15.00;;;2.72;;
64395;SDS011;50717;53.360;6.290;2022-10-16T17:01:02;15.70;;;3.00;;
64395;SDS011;50717;53.360;6.290;2022-10-16T17:03:28;10.85;;;2.25;;
64395;SDS011;50717;53.360;6.290;2022-10-16T17:06:03;11.77;;;2.25;;
64395;SDS011;50717;53.360;6.290;2022-10-16T17:08:30;9.93;;;2.97;;
64395;SDS011;50717;53.360;6.290;2022-10-16T17:10:57;13.35;;;2.75;;
64395;SDS011;50717;53.360;6.290;2022-10-16T17:13:26;19.23;;;3.75;;
64395;SDS011;50717;53.360;6.290;2022-10-16T17:15:53;12.05;;;2.00;;
64395;SDS011;50717;53.360;6.290;2022-10-16T17:18:20;13.75;;;2.63;;
64395;SDS011;50717;53.360;6.290;2022-10-16T17:20:47;11.07;;;2.40;;
64395;SDS011;50717;53.360;6.290;2022-10-16T17:23:14;14.15;;;2.65;;
64395;SDS011;50717;53.360;6.290;2022-10-16T17:25:41;12.55;;;2.80;;
64395;SDS011;50717;53.360;6.290;2022-10-16T17:30:35;11.98;;;2.38;;
64395;SDS011;50717;53.360;6.290;2022-10-16T17:33:02;12.85;;;2.70;;
64395;SDS011;50717;53.360;6.290;2022-10-16T17:35:29;17.92;;;2.53;;
64395;SDS011;50717;53.360;6.290;2022-10-16T17:38:01;16.17;;;2.97;;
64395;SDS011;50717;53.360;6.290;2022-10-16T17:40:26;14.98;;;2.75;;
64395;SDS011;50717;53.360;6.290;2022-10-16T17:45:17;9.00;;;2.75;;
64395;SDS011;50717;53.360;6.290;2022-10-16T17:47:43;7.18;;;1.90;;
64395;SDS011;50717;53.360;6.290;2022-10-16T17:50:09;17.55;;;3.30;;
64395;SDS011;50717;53.360;6.290;2022-10-16T17:52:34;15.52;;;2.40;;
64395;SDS011;50717;53.360;6.290;2022-10-16T17:55:00;19.23;;;2.50;;
64395;SDS011;50717;53.360;6.290;2022-10-16T17:57:26;11.65;;;3.40;;
64395;SDS011;50717;53.360;6.290;2022-10-16T17:59:53;12.52;;;2.70;;
64395;SDS011;50717;53.360;6.290;2022-10-16T18:02:19;17.05;;;3.22;;
64395;SDS011;50717;53.360;6.290;2022-10-16T18:04:46;17.20;;;3.17;;
64395;SDS011;50717;53.360;6.290;2022-10-16T18:07:11;14.05;;;3.55;;